createdAt,value
2018-12-27T00:08:33.167Z,2.70
2018-12-27T00:11:17.405Z,2.70
2018-12-27T00:14:01.086Z,2.70
2018-12-27T00:19:42.349Z,2.70
2018-12-27T00:22:25.414Z,2.80
2018-12-27T00:25:09.294Z,2.80
2018-12-27T00:27:54.043Z,2.80
2018-12-27T00:30:39.047Z,2.80
2018-12-27T00:36:20.327Z,2.80
2018-12-27T00:39:05.609Z,2.80
2018-12-27T00:41:49.238Z,2.80
2018-12-27T00:44:32.727Z,2.80
2018-12-27T00:47:14.415Z,2.70
2018-12-27T00:49:57.561Z,2.70
2018-12-27T00:52:41.267Z,2.70
2018-12-27T00:55:25.944Z,2.70
2018-12-27T00:58:09.641Z,2.80
2018-12-27T01:00:53.841Z,2.80
2018-12-27T01:03:38.304Z,2.80
2018-12-27T01:12:02.261Z,2.80
2018-12-27T01:14:47.406Z,2.80
2018-12-27T01:17:32.060Z,2.80
2018-12-27T01:20:17.028Z,2.80
2018-12-27T01:25:52.110Z,2.80
2018-12-27T01:31:24.963Z,2.80
2018-12-27T01:34:11.351Z,2.80
2018-12-27T01:42:41.654Z,2.70
2018-12-27T01:45:25.387Z,2.70
2018-12-27T01:48:11.216Z,2.60
2018-12-27T01:53:48.972Z,2.60
2018-12-27T01:56:37.875Z,2.50
2018-12-27T01:59:23.073Z,2.50
2018-12-27T02:02:07.389Z,2.60
2018-12-27T02:04:53.674Z,2.60
2018-12-27T02:07:38.901Z,2.60
2018-12-27T02:10:23.710Z,2.60
2018-12-27T02:13:08.596Z,2.60
2018-12-27T02:15:53.318Z,2.60
2018-12-27T02:18:37.486Z,2.60
2018-12-27T02:21:21.762Z,2.60
2018-12-27T02:24:06.172Z,2.50
2018-12-27T02:26:51.296Z,2.50
2018-12-27T02:29:36.062Z,2.30
2018-12-27T02:32:21.143Z,2.30
2018-12-27T02:35:05.614Z,2.10
2018-12-27T02:40:48.389Z,1.90
2018-12-27T02:43:35.129Z,2.00
2018-12-27T02:46:19.591Z,2.10
2018-12-27T02:49:09.510Z,2.20
2018-12-27T02:51:55.500Z,2.20
2018-12-27T02:54:41.737Z,2.20
2018-12-27T02:57:26.455Z,2.30
2018-12-27T03:00:10.583Z,2.30
2018-12-27T03:02:54.007Z,2.20
2018-12-27T03:05:38.975Z,2.10
2018-12-27T03:08:25.190Z,2.00
2018-12-27T03:11:13.169Z,2.00
2018-12-27T03:13:58.015Z,1.70
2018-12-27T03:16:44.355Z,1.50
2018-12-27T03:19:28.619Z,1.50
2018-12-27T03:22:13.584Z,1.60
2018-12-27T03:24:59.522Z,1.70
2018-12-27T03:27:43.808Z,1.60
2018-12-27T03:30:28.362Z,1.50
2018-12-27T03:33:02.420Z,1.20
2018-12-27T03:35:47.129Z,0.90
2018-12-27T03:38:31.703Z,0.70
2018-12-27T03:44:06.054Z,0.20
2018-12-27T03:46:55.107Z,-0.10
2018-12-27T03:49:40.050Z,-0.20
2018-12-27T03:52:24.406Z,-0.40
2018-12-27T03:55:07.673Z,-0.50
2018-12-27T03:57:52.238Z,-0.60
2018-12-27T04:00:38.845Z,-0.70
2018-12-27T04:03:22.963Z,-0.70
2018-12-27T04:06:06.912Z,-0.70
2018-12-27T04:08:51.724Z,-0.70
2018-12-27T04:11:36.051Z,-0.80
2018-12-27T04:14:20.185Z,-0.90
2018-12-27T04:17:04.402Z,-0.90
2018-12-27T04:19:48.704Z,-1.00
2018-12-27T04:22:32.816Z,-1.00
2018-12-27T04:25:07.233Z,-1.10
2018-12-27T04:27:52.221Z,-1.10
2018-12-27T04:30:41.074Z,-1.10
2018-12-27T04:39:10.886Z,-0.90
2018-12-27T04:41:56.096Z,-0.70
2018-12-27T04:47:31.263Z,-0.20
2018-12-27T04:50:16.332Z,0.00
2018-12-27T04:53:04.197Z,0.20
2018-12-27T04:55:48.350Z,0.30
2018-12-27T04:58:33.049Z,0.20
2018-12-27T05:01:21.015Z,0.10
2018-12-27T05:04:17.803Z,0.00
2018-12-27T05:07:01.518Z,0.00
2018-12-27T05:12:33.667Z,0.20
2018-12-27T05:15:18.152Z,0.30
2018-12-27T05:18:06.636Z,0.30
2018-12-27T05:23:49.492Z,0.40
2018-12-27T05:26:34.487Z,0.40
2018-12-27T05:29:19.004Z,0.30
2018-12-27T05:32:07.842Z,0.20
2018-12-27T05:34:52.280Z,0.20
2018-12-27T05:37:36.897Z,0.30
2018-12-27T05:40:27.016Z,0.40
2018-12-27T05:43:13.585Z,0.60
2018-12-27T05:48:45.271Z,0.80
2018-12-27T05:51:29.605Z,0.80
2018-12-27T05:54:14.015Z,0.70
2018-12-27T05:56:58.028Z,0.80
2018-12-27T05:59:42.318Z,0.80
2018-12-27T06:02:32.019Z,0.80
2018-12-27T06:05:16.630Z,0.80
2018-12-27T06:08:03.247Z,0.60
2018-12-27T06:10:47.919Z,0.40
2018-12-27T06:13:32.429Z,0.20
2018-12-27T06:16:16.558Z,0.00
2018-12-27T06:19:06.449Z,0.10
2018-12-27T06:21:51.118Z,0.00
2018-12-27T06:24:36.335Z,0.20
2018-12-27T06:30:12.841Z,0.40
2018-12-27T06:33:03.375Z,0.30
2018-12-27T06:38:41.813Z,-0.10
2018-12-27T06:41:28.503Z,-0.50
2018-12-27T06:44:18.549Z,-0.80
2018-12-27T06:47:07.657Z,-1.00
2018-12-27T06:49:53.933Z,-1.10
2018-12-27T06:52:38.439Z,-1.30
2018-12-27T06:55:25.376Z,-1.50
2018-12-27T06:58:14.130Z,-1.60
2018-12-27T07:01:02.449Z,-1.70
2018-12-27T07:03:47.545Z,-1.80
2018-12-27T07:06:37.037Z,-1.90
2018-12-27T07:09:23.136Z,-2.00
2018-12-27T07:12:12.445Z,-1.90
2018-12-27T07:14:56.883Z,-1.80
2018-12-27T07:17:39.733Z,-1.70
2018-12-27T07:23:28.318Z,-1.80
2018-12-27T07:26:11.934Z,-1.90
2018-12-27T07:34:43.721Z,-2.00
2018-12-27T07:37:28.167Z,-1.90
2018-12-27T07:40:12.378Z,-1.80
2018-12-27T07:42:57.182Z,-1.70
2018-12-27T07:45:41.006Z,-1.50
2018-12-27T07:48:28.384Z,-1.30
2018-12-27T07:51:12.558Z,-1.10
2018-12-27T07:53:55.594Z,-1.10
2018-12-27T07:56:38.868Z,-1.00
2018-12-27T07:59:11.192Z,-0.90
2018-12-27T08:01:57.303Z,-0.80
2018-12-27T08:07:43.111Z,-0.70
2018-12-27T08:10:26.784Z,-0.60
2018-12-27T08:16:04.514Z,-0.70
2018-12-27T08:18:51.783Z,-0.70
2018-12-27T08:21:40.796Z,-0.60
2018-12-27T08:24:23.984Z,-0.40
2018-12-27T08:27:07.565Z,-0.20
2018-12-27T08:29:56.748Z,-0.10
2018-12-27T08:36:12.026Z,0.20
2018-12-27T08:41:58.180Z,0.30
2018-12-27T08:47:57.943Z,0.70
2018-12-27T08:50:41.052Z,0.90
2018-12-27T08:53:29.764Z,0.90
2018-12-27T08:59:06.105Z,1.00
2018-12-27T09:04:58.057Z,1.30
2018-12-27T09:10:45.199Z,1.40
2018-12-27T09:13:35.312Z,1.50
2018-12-27T09:19:15.420Z,1.80
2018-12-27T09:22:01.110Z,2.10
2018-12-27T09:27:51.683Z,2.40
2018-12-27T09:33:57.329Z,2.90
2018-12-27T09:36:29.055Z,3.00
2018-12-27T09:39:12.461Z,3.20
2018-12-27T09:41:55.478Z,3.50
2018-12-27T09:44:28.035Z,3.80
2018-12-27T09:47:18.841Z,4.00
2018-12-27T09:50:04.596Z,4.10
2018-12-27T09:52:49.742Z,4.30
2018-12-27T10:01:28.772Z,4.60
2018-12-27T10:10:06.138Z,4.90
2018-12-27T10:15:45.704Z,5.10
2018-12-27T10:21:13.500Z,5.00
2018-12-27T10:24:02.525Z,5.00
2018-12-27T10:29:51.292Z,5.10
2018-12-27T10:32:37.379Z,5.10
2018-12-27T10:35:20.516Z,5.00
2018-12-27T10:40:51.335Z,5.00
2018-12-27T10:49:29.057Z,5.20
2018-12-27T10:52:18.325Z,5.30
2018-12-27T10:55:07.322Z,5.30
2018-12-27T11:03:53.709Z,5.50
2018-12-27T11:06:37.771Z,5.60
2018-12-27T11:09:22.093Z,5.80
2018-12-27T11:12:10.670Z,6.00
2018-12-27T11:14:55.638Z,6.20
2018-12-27T11:17:38.996Z,6.30
2018-12-27T11:20:27.157Z,6.40
2018-12-27T11:26:30.523Z,6.70
2018-12-27T11:29:19.839Z,6.80
2018-12-27T11:38:02.415Z,7.90
2018-12-27T11:40:47.870Z,8.00
2018-12-27T11:43:34.773Z,7.80
2018-12-27T11:46:20.663Z,7.70
2018-12-27T11:52:00.600Z,7.60
2018-12-27T11:54:44.426Z,7.90
2018-12-27T11:57:28.599Z,8.00
2018-12-27T12:00:12.686Z,8.20
2018-12-27T12:03:00.315Z,8.40
2018-12-27T12:11:31.221Z,9.00
2018-12-27T12:14:20.064Z,9.30
2018-12-27T12:17:04.333Z,9.60
2018-12-27T12:19:49.118Z,10.10
2018-12-27T12:22:33.721Z,10.50
2018-12-27T12:25:18.103Z,10.00
2018-12-27T12:28:02.550Z,9.30
2018-12-27T12:30:46.021Z,8.90
2018-12-27T12:36:20.762Z,8.70
2018-12-27T12:39:04.986Z,8.70
2018-12-27T12:41:49.409Z,8.80
2018-12-27T12:44:33.140Z,8.70
2018-12-27T12:47:19.197Z,8.40
2018-12-27T12:49:51.335Z,8.30
2018-12-27T12:52:37.073Z,8.20
2018-12-27T12:55:21.197Z,8.10
2018-12-27T13:00:55.790Z,7.90
2018-12-27T13:03:39.560Z,7.90
2018-12-27T13:06:18.019Z,7.70
2018-12-27T13:11:51.020Z,7.70
2018-12-27T13:14:38.283Z,7.70
2018-12-27T13:20:28.567Z,7.80
2018-12-27T13:23:12.902Z,7.80
2018-12-27T13:25:55.758Z,7.80
2018-12-27T13:28:40.708Z,7.70
2018-12-27T13:34:22.822Z,7.80
2018-12-27T13:37:07.875Z,7.60
2018-12-27T13:39:53.872Z,7.70
2018-12-27T13:42:38.783Z,7.70
2018-12-27T13:45:23.740Z,7.70
2018-12-27T13:51:25.674Z,7.50
2018-12-27T13:54:09.828Z,7.50
2018-12-27T13:56:54.595Z,7.40
2018-12-27T13:59:39.025Z,7.50
2018-12-27T14:02:23.793Z,7.40
2018-12-27T14:05:09.098Z,7.40
2018-12-27T14:07:53.059Z,7.40
2018-12-27T14:10:36.521Z,7.30
2018-12-27T14:16:06.840Z,7.20
2018-12-27T14:18:55.870Z,7.10
2018-12-27T14:21:46.629Z,7.20
2018-12-27T14:27:12.906Z,7.00
2018-12-27T14:29:56.952Z,7.00
2018-12-27T14:32:30.927Z,6.90
2018-12-27T14:35:13.626Z,6.70
2018-12-27T14:38:00.103Z,6.80
2018-12-27T14:43:38.105Z,6.60
2018-12-27T14:46:22.906Z,6.60
2018-12-27T14:49:06.088Z,6.60
2018-12-27T14:51:51.190Z,6.50
2018-12-27T14:57:42.561Z,6.50
2018-12-27T15:00:28.345Z,6.20
2018-12-27T15:03:12.389Z,6.00
2018-12-27T15:05:45.437Z,6.00
2018-12-27T15:08:33.003Z,5.90
2018-12-27T15:11:46.124Z,5.70
2018-12-27T15:14:16.214Z,5.50
2018-12-27T15:17:05.051Z,5.20
2018-12-27T15:19:53.085Z,5.10
2018-12-27T15:22:38.227Z,5.00
2018-12-27T15:25:21.883Z,4.80
2018-12-27T15:28:06.080Z,4.60
2018-12-27T15:33:44.035Z,4.20
2018-12-27T15:36:27.957Z,4.00
2018-12-27T15:42:08.373Z,3.80
2018-12-27T15:44:52.470Z,3.60
2018-12-27T15:47:40.514Z,3.50
2018-12-27T15:50:30.257Z,3.50
2018-12-27T15:53:16.858Z,3.40
2018-12-27T15:56:25.659Z,3.40
2018-12-27T15:59:13.797Z,3.40
2018-12-27T16:05:02.851Z,3.20
2018-12-27T16:10:49.591Z,3.10
2018-12-27T16:13:37.536Z,2.80
2018-12-27T16:16:21.181Z,2.70
2018-12-27T16:19:06.693Z,2.50
2018-12-27T16:21:50.915Z,2.40
2018-12-27T16:27:31.226Z,2.50
2018-12-27T16:30:15.904Z,2.60
2018-12-27T16:33:00.602Z,2.60
2018-12-27T16:38:41.411Z,2.60
2018-12-27T16:41:25.815Z,2.60
2018-12-27T16:49:52.246Z,2.40
2018-12-27T16:52:37.307Z,2.40
2018-12-27T16:55:22.043Z,2.30
2018-12-27T16:58:06.079Z,2.40
2018-12-27T17:00:50.918Z,2.50
2018-12-27T17:03:40.496Z,2.60
2018-12-27T17:06:26.389Z,2.70
2018-12-27T17:09:10.877Z,2.70
2018-12-27T17:21:27.124Z,2.50
2018-12-27T17:24:14.488Z,2.50
2018-12-27T17:27:10.259Z,2.40
2018-12-27T17:36:29.069Z,2.10
2018-12-27T17:39:38.195Z,1.90
2018-12-27T17:42:21.251Z,1.80
2018-12-27T17:45:05.585Z,1.80
2018-12-27T17:47:52.132Z,1.60
2018-12-27T17:51:04.151Z,1.40
2018-12-27T17:53:48.817Z,1.40
2018-12-27T17:59:39.931Z,1.10
2018-12-27T18:02:25.511Z,0.90
2018-12-27T18:05:09.907Z,0.80
2018-12-27T18:07:57.579Z,0.70
2018-12-27T18:13:37.687Z,0.60
2018-12-27T18:16:10.378Z,0.50
2018-12-27T18:19:02.167Z,0.40
2018-12-27T18:21:46.217Z,0.40
2018-12-27T18:24:30.565Z,0.40
2018-12-27T18:30:01.474Z,0.50
2018-12-27T18:35:34.330Z,0.50
2018-12-27T18:38:20.297Z,0.50
2018-12-27T18:41:04.036Z,0.70
2018-12-27T18:46:39.170Z,0.80
2018-12-27T18:49:25.550Z,0.80
2018-12-27T18:52:10.104Z,0.70
2018-12-27T18:54:53.501Z,0.70
2018-12-27T19:00:24.702Z,0.70
2018-12-27T19:03:10.313Z,0.70
2018-12-27T19:05:54.527Z,0.60
2018-12-27T19:08:39.083Z,0.70
2018-12-27T19:11:23.665Z,0.60
2018-12-27T19:14:08.023Z,0.60
2018-12-27T19:19:43.974Z,0.60
2018-12-27T19:22:28.219Z,0.60
2018-12-27T19:25:16.999Z,0.60
2018-12-27T19:28:02.825Z,0.60
2018-12-27T19:30:46.802Z,0.60
2018-12-27T19:33:31.383Z,0.40
2018-12-27T19:39:03.022Z,0.50
2018-12-27T19:41:48.194Z,0.50
2018-12-27T19:44:32.446Z,0.40
2018-12-27T19:50:13.789Z,0.40
2018-12-27T19:52:58.379Z,0.40
2018-12-27T19:55:42.399Z,0.30
2018-12-27T19:58:30.291Z,0.30
2018-12-27T20:01:15.515Z,0.20
2018-12-27T20:04:00.784Z,0.10
2018-12-27T20:09:46.525Z,0.00
2018-12-27T20:12:33.338Z,0.10
2018-12-27T20:15:21.590Z,0.10
2018-12-27T20:18:10.543Z,0.00
2018-12-27T20:20:54.960Z,0.00
2018-12-27T20:23:41.908Z,-0.10
2018-12-27T20:26:27.697Z,-0.10
2018-12-27T20:29:16.777Z,-0.20
2018-12-27T20:41:11.016Z,-0.10
2018-12-27T20:43:55.186Z,0.00
2018-12-27T20:46:39.112Z,0.00
2018-12-27T20:49:22.765Z,0.10
2018-12-27T20:52:06.720Z,0.10
2018-12-27T20:57:37.552Z,0.10
2018-12-27T21:00:25.076Z,0.20
2018-12-27T21:03:22.346Z,0.20
2018-12-27T21:06:05.925Z,0.20
2018-12-27T21:08:49.365Z,0.30
2018-12-27T21:11:33.917Z,0.30
2018-12-27T21:17:10.935Z,0.40
2018-12-27T21:19:56.842Z,0.40
2018-12-27T21:22:44.706Z,0.40
2018-12-27T21:25:33.096Z,0.50
2018-12-27T21:28:23.804Z,0.50
2018-12-27T21:37:41.973Z,0.60
2018-12-27T21:52:34.240Z,0.60
2018-12-27T21:55:25.312Z,0.60
2018-12-27T21:58:09.625Z,0.60
2018-12-27T22:00:53.566Z,0.60
2018-12-27T22:06:52.265Z,0.50
2018-12-27T22:09:38.226Z,0.40
2018-12-27T22:12:25.540Z,0.50
2018-12-27T22:15:09.246Z,0.60
2018-12-27T22:17:53.449Z,0.60
2018-12-27T22:20:41.529Z,0.50
2018-12-27T22:23:25.727Z,0.70
2018-12-27T22:29:10.837Z,0.50
2018-12-27T22:31:55.110Z,0.40
2018-12-27T22:34:39.605Z,0.40
2018-12-27T22:37:24.624Z,0.40
2018-12-27T22:43:06.476Z,0.20
2018-12-27T22:45:59.728Z,0.10
2018-12-27T22:48:43.701Z,0.00
2018-12-27T22:51:31.550Z,-0.10
2018-12-27T22:54:20.233Z,-0.10
2018-12-27T22:57:08.207Z,0.00
2018-12-27T22:59:56.865Z,0.20
2018-12-27T23:03:00.116Z,0.30
2018-12-27T23:05:44.915Z,0.20
2018-12-27T23:08:42.818Z,0.00
2018-12-27T23:11:29.957Z,-0.10
2018-12-27T23:14:14.790Z,-0.20
2018-12-27T23:17:03.550Z,-0.20
2018-12-27T23:19:52.827Z,-0.30
2018-12-27T23:22:38.169Z,-0.30
2018-12-27T23:25:21.776Z,-0.40
2018-12-27T23:28:13.307Z,-0.50
2018-12-27T23:31:01.258Z,-0.60
2018-12-27T23:33:49.855Z,-0.50
2018-12-27T23:36:36.103Z,-0.60
2018-12-27T23:39:19.618Z,-0.60
2018-12-27T23:42:03.541Z,-0.60
2018-12-27T23:44:50.900Z,-0.40
2018-12-27T23:47:34.860Z,-0.10
2018-12-27T23:50:19.592Z,0.20
2018-12-27T23:53:03.334Z,0.60
2018-12-27T23:55:51.033Z,0.90
2018-12-27T23:58:34.746Z,1.10
